createdAt,value
2018-06-24T00:00:42.178Z,38.00
2018-06-24T00:03:10.505Z,40.40
2018-06-24T00:05:39.423Z,38.37
2018-06-24T00:08:07.169Z,32.33
2018-06-24T00:10:36.094Z,29.50
2018-06-24T00:13:03.849Z,27.00
2018-06-24T00:15:32.201Z,25.23
2018-06-24T00:18:01.159Z,21.03
2018-06-24T00:20:29.515Z,25.57
2018-06-24T00:22:57.876Z,28.40
2018-06-24T00:25:25.628Z,26.60
2018-06-24T00:27:54.551Z,30.97
2018-06-24T00:30:22.883Z,34.97
2018-06-24T00:32:50.647Z,32.67
2018-06-24T00:35:19.578Z,27.13
2018-06-24T00:37:47.318Z,27.23
2018-06-24T00:40:16.238Z,17.03
2018-06-24T00:42:43.987Z,19.10
2018-06-24T00:45:12.327Z,17.27
2018-06-24T00:47:41.250Z,20.13
2018-06-24T00:50:09.812Z,19.47
2018-06-24T00:52:37.931Z,21.07
2018-06-24T00:55:05.673Z,27.50
2018-06-24T00:57:34.596Z,27.30
2018-06-24T01:00:06.787Z,28.13
2018-06-24T01:02:35.141Z,23.50
2018-06-24T01:05:03.466Z,27.33
2018-06-24T01:07:31.807Z,27.07
2018-06-24T01:09:59.573Z,24.07
2018-06-24T01:12:27.905Z,29.17
2018-06-24T01:14:56.817Z,19.27
2018-06-24T01:17:25.145Z,25.53
2018-06-24T01:19:52.953Z,21.23
2018-06-24T01:22:23.874Z,20.20
2018-06-24T01:24:52.902Z,22.57
2018-06-24T01:27:23.891Z,23.07
2018-06-24T01:29:56.041Z,20.97
2018-06-24T01:32:26.439Z,20.93
2018-06-24T01:34:55.763Z,18.40
2018-06-24T01:37:30.996Z,21.37
2018-06-24T01:39:59.683Z,16.40
2018-06-24T01:42:32.038Z,19.50
2018-06-24T01:45:00.505Z,13.70
2018-06-24T01:47:29.934Z,13.63
2018-06-24T01:50:06.164Z,15.60
2018-06-24T01:52:35.226Z,16.80
2018-06-24T01:55:04.643Z,10.17
2018-06-24T01:57:33.278Z,16.13
2018-06-24T02:00:02.289Z,9.27
2018-06-24T02:02:30.479Z,15.20
2018-06-24T02:04:59.643Z,14.30
2018-06-24T02:07:45.311Z,14.53
2018-06-24T02:10:24.678Z,11.90
2018-06-24T02:13:02.246Z,12.63
2018-06-24T02:15:37.443Z,12.23
2018-06-24T02:18:17.931Z,16.30
2018-06-24T02:21:05.490Z,16.47
2018-06-24T02:29:35.107Z,15.10
2018-06-24T02:32:12.770Z,21.03
2018-06-24T02:34:52.322Z,15.63
2018-06-24T02:40:26.115Z,17.70
2018-06-24T02:43:07.552Z,17.23
2018-06-24T02:48:45.728Z,19.33
2018-06-24T02:54:37.324Z,17.83
2018-06-24T02:57:22.187Z,18.40
2018-06-24T02:59:58.051Z,22.00
2018-06-24T03:02:48.139Z,18.03
2018-06-24T03:05:19.603Z,20.50
2018-06-24T03:08:00.605Z,19.47
2018-06-24T03:10:36.884Z,17.53
2018-06-24T03:13:30.556Z,18.30
2018-06-24T03:16:13.579Z,16.43
2018-06-24T03:21:57.132Z,18.23
2018-06-24T03:24:22.755Z,17.33
2018-06-24T03:26:58.461Z,18.77
2018-06-24T03:29:29.994Z,15.93
2018-06-24T03:37:41.416Z,12.23
2018-06-24T03:40:10.129Z,12.87
2018-06-24T03:42:44.461Z,13.97
2018-06-24T03:45:21.795Z,12.53
2018-06-24T03:47:50.590Z,15.40
2018-06-24T03:50:20.083Z,13.40
2018-06-24T03:52:49.487Z,12.10
2018-06-24T03:55:17.895Z,12.07
2018-06-24T03:57:46.118Z,11.80
2018-06-24T04:00:17.421Z,11.13
2018-06-24T04:02:47.893Z,11.43
2018-06-24T04:05:15.696Z,13.63
2018-06-24T04:07:50.654Z,12.23
2018-06-24T04:10:19.301Z,10.77
2018-06-24T04:12:47.832Z,12.17
2018-06-24T04:15:17.587Z,11.40
2018-06-24T04:17:46.301Z,10.37
2018-06-24T04:20:15.215Z,9.37
2018-06-24T04:22:43.791Z,9.63
2018-06-24T04:25:12.297Z,10.47
2018-06-24T04:27:42.536Z,12.77
2018-06-24T04:30:11.682Z,7.30
2018-06-24T04:32:41.307Z,10.50
2018-06-24T04:35:09.972Z,8.27
2018-06-24T04:37:38.369Z,8.83
2018-06-24T04:40:06.786Z,5.30
2018-06-24T04:42:38.861Z,7.70
2018-06-24T04:45:08.488Z,6.80
2018-06-24T04:47:37.195Z,10.93
2018-06-24T04:50:05.519Z,5.80
2018-06-24T04:52:53.937Z,5.93
2018-06-24T04:55:38.600Z,5.37
2018-06-24T04:58:11.146Z,5.23
2018-06-24T05:00:39.494Z,7.23
2018-06-24T05:03:07.806Z,5.97
2018-06-24T05:05:35.546Z,8.73
2018-06-24T05:08:04.458Z,6.93
2018-06-24T05:10:32.784Z,5.50
2018-06-24T05:13:01.102Z,5.57
2018-06-24T05:15:28.853Z,4.93
2018-06-24T05:17:57.750Z,5.87
2018-06-24T05:20:26.075Z,5.30
2018-06-24T05:22:54.453Z,4.87
2018-06-24T05:25:22.772Z,4.23
2018-06-24T05:27:51.091Z,3.30
2018-06-24T05:30:19.426Z,4.17
2018-06-24T05:32:47.743Z,3.33
2018-06-24T05:35:16.062Z,5.00
2018-06-24T05:37:43.830Z,4.10
2018-06-24T05:40:12.136Z,3.70
2018-06-24T05:42:42.279Z,4.30
2018-06-24T05:45:09.373Z,4.07
2018-06-24T05:47:37.692Z,6.57
2018-06-24T05:50:06.007Z,4.97
2018-06-24T05:52:33.746Z,6.43
2018-06-24T05:55:02.102Z,5.37
2018-06-24T05:57:31.013Z,3.50
2018-06-24T05:59:59.321Z,7.37
2018-06-24T06:02:27.641Z,5.77
2018-06-24T06:04:55.391Z,5.67
2018-06-24T06:07:24.300Z,5.63
2018-06-24T06:09:52.617Z,5.83
2018-06-24T06:12:20.951Z,5.73
2018-06-24T06:14:49.504Z,6.53
2018-06-24T06:17:17.609Z,7.13
2018-06-24T06:19:45.930Z,5.13
2018-06-24T06:22:14.261Z,7.30
2018-06-24T06:24:42.612Z,8.80
2018-06-24T06:27:10.943Z,5.77
2018-06-24T06:29:39.347Z,5.13
2018-06-24T06:32:07.089Z,4.10
2018-06-24T06:34:35.997Z,9.60
2018-06-24T06:37:04.337Z,21.13
2018-06-24T06:39:32.135Z,8.20
2018-06-24T06:42:01.212Z,6.23
2018-06-24T06:44:28.802Z,7.97
2018-06-24T06:46:57.715Z,4.40
2018-06-24T06:49:25.457Z,5.53
2018-06-24T06:51:54.363Z,4.83
2018-06-24T06:54:22.105Z,5.00
2018-06-24T06:56:50.438Z,6.50
2018-06-24T06:59:19.330Z,4.67
2018-06-24T07:01:47.679Z,3.80
2018-06-24T07:04:15.438Z,5.30
2018-06-24T07:06:44.348Z,5.77
2018-06-24T07:09:12.650Z,5.10
2018-06-24T07:11:40.963Z,5.07
2018-06-24T07:14:09.293Z,7.70
2018-06-24T07:16:37.610Z,6.13
2018-06-24T07:19:05.966Z,4.23
2018-06-24T07:21:34.300Z,24.27
2018-06-24T07:24:02.660Z,13.60
2018-06-24T07:26:31.039Z,3.97
2018-06-24T07:28:58.785Z,10.77
2018-06-24T07:31:27.693Z,5.13
2018-06-24T07:33:55.453Z,2.57
2018-06-24T07:36:24.355Z,1.77
2018-06-24T07:38:52.100Z,1.90
2018-06-24T07:41:21.076Z,1.33
2018-06-24T07:43:48.816Z,1.37
2018-06-24T07:46:17.135Z,1.83
2018-06-24T07:48:46.056Z,1.30
2018-06-24T07:51:14.377Z,2.40
2018-06-24T07:53:42.696Z,2.03
2018-06-24T07:56:11.027Z,1.90
2018-06-24T07:58:39.357Z,2.43
2018-06-24T08:01:07.110Z,3.73
2018-06-24T08:03:36.019Z,0.80
2018-06-24T08:06:04.344Z,0.67
2018-06-24T08:08:32.668Z,2.40
2018-06-24T08:11:01.604Z,1.40
2018-06-24T08:13:29.323Z,11.07
2018-06-24T08:15:57.650Z,3.23
2018-06-24T08:18:25.390Z,0.83
2018-06-24T08:20:54.291Z,0.90
2018-06-24T08:23:22.614Z,2.17
2018-06-24T08:25:50.936Z,8.43
2018-06-24T08:28:19.387Z,2.20
2018-06-24T08:30:47.734Z,0.60
2018-06-24T08:33:16.070Z,0.93
2018-06-24T08:35:44.391Z,1.40
2018-06-24T08:38:12.709Z,3.03
2018-06-24T08:40:40.494Z,0.60
2018-06-24T08:43:09.361Z,2.20
2018-06-24T08:45:37.755Z,2.00
2018-06-24T08:48:05.501Z,1.30
2018-06-24T08:50:34.641Z,1.77
2018-06-24T08:53:02.783Z,13.70
2018-06-24T08:55:31.151Z,1.73
2018-06-24T08:57:59.465Z,1.00
2018-06-24T09:00:27.792Z,2.43
2018-06-24T09:02:55.541Z,4.83
2018-06-24T09:05:24.447Z,0.83
2018-06-24T09:07:52.781Z,2.07
2018-06-24T09:10:21.109Z,2.63
2018-06-24T09:12:49.666Z,0.87
2018-06-24T09:15:17.769Z,0.77
2018-06-24T09:17:46.245Z,2.10
2018-06-24T09:20:13.994Z,1.10
2018-06-24T09:22:42.987Z,2.03
2018-06-24T09:25:10.739Z,0.50
2018-06-24T09:27:39.107Z,0.60
2018-06-24T09:30:07.453Z,0.87
2018-06-24T09:32:36.367Z,1.50
2018-06-24T09:35:04.691Z,0.50
2018-06-24T09:37:33.018Z,1.17
2018-06-24T09:40:01.343Z,0.60
2018-06-24T09:42:29.096Z,0.60
2018-06-24T09:44:57.427Z,2.10
2018-06-24T09:47:26.340Z,3.03
2018-06-24T09:49:54.124Z,8.10
2018-06-24T09:52:23.035Z,1.27
2018-06-24T09:54:50.775Z,1.10
2018-06-24T09:57:19.700Z,0.77
2018-06-24T09:59:48.035Z,0.73
2018-06-24T10:02:16.381Z,3.43
2018-06-24T10:04:44.718Z,13.23
2018-06-24T10:07:13.088Z,1.90
2018-06-24T10:09:40.788Z,0.70
2018-06-24T10:12:09.141Z,3.10
2018-06-24T10:14:38.054Z,0.70
2018-06-24T10:17:06.390Z,0.83
2018-06-24T10:19:34.716Z,0.50
2018-06-24T10:22:02.476Z,0.90
2018-06-24T10:24:31.378Z,0.63
2018-06-24T10:26:59.710Z,1.40
2018-06-24T10:29:27.501Z,1.50
2018-06-24T10:31:56.384Z,0.90
2018-06-24T10:34:24.753Z,1.43
2018-06-24T10:36:53.994Z,1.03
2018-06-24T10:39:22.340Z,0.70
2018-06-24T10:41:50.657Z,1.10
2018-06-24T10:44:19.004Z,1.60
2018-06-24T10:46:46.752Z,0.67
2018-06-24T10:49:15.675Z,1.40
2018-06-24T10:51:44.007Z,0.90
2018-06-24T10:54:12.335Z,2.73
2018-06-24T10:56:40.111Z,0.87
2018-06-24T10:59:09.001Z,0.93
2018-06-24T11:01:37.328Z,1.30
2018-06-24T11:04:05.651Z,1.37
2018-06-24T11:06:34.013Z,1.43
2018-06-24T11:09:02.359Z,7.30
2018-06-24T11:11:30.700Z,14.33
2018-06-24T11:13:59.071Z,1.57
2018-06-24T11:16:27.398Z,2.33
2018-06-24T11:18:55.730Z,2.60
2018-06-24T11:21:24.053Z,2.43
2018-06-24T11:23:52.364Z,2.90
2018-06-24T11:26:20.106Z,1.50
2018-06-24T11:28:49.069Z,1.50
2018-06-24T11:31:17.595Z,3.07
2018-06-24T11:33:46.049Z,1.30
2018-06-24T11:36:14.332Z,2.97
2018-06-24T11:38:42.802Z,2.17
2018-06-24T11:41:11.140Z,1.57
2018-06-24T11:43:39.488Z,1.13
2018-06-24T11:46:07.889Z,2.07
2018-06-24T11:48:36.216Z,1.40
2018-06-24T11:51:04.551Z,1.07
2018-06-24T11:53:33.011Z,3.07
2018-06-24T11:56:01.339Z,1.73
2018-06-24T11:58:29.662Z,2.37
2018-06-24T12:00:57.977Z,2.50
2018-06-24T12:03:26.309Z,1.47
2018-06-24T12:05:54.046Z,1.83
2018-06-24T12:08:22.946Z,5.20
2018-06-24T12:10:50.758Z,3.97
2018-06-24T12:13:19.629Z,4.10
2018-06-24T12:15:47.946Z,1.40
2018-06-24T12:18:16.564Z,1.27
2018-06-24T12:20:44.834Z,1.27
2018-06-24T12:23:13.146Z,2.03
2018-06-24T12:25:41.480Z,2.37
2018-06-24T12:28:09.802Z,1.30
2018-06-24T12:30:37.559Z,1.47
2018-06-24T12:33:06.590Z,1.70
2018-06-24T12:35:35.096Z,2.03
2018-06-24T12:38:10.493Z,1.23
2018-06-24T12:40:38.300Z,2.40
2018-06-24T12:43:07.224Z,2.43
2018-06-24T12:45:35.671Z,1.67
2018-06-24T12:48:03.397Z,2.63
2018-06-24T12:50:32.333Z,1.57
2018-06-24T12:53:00.652Z,2.77
2018-06-24T12:55:29.483Z,2.43
2018-06-24T12:57:57.230Z,2.10
2018-06-24T13:00:26.711Z,3.97
2018-06-24T13:02:54.466Z,2.53
2018-06-24T13:05:23.004Z,1.53
2018-06-24T13:07:51.274Z,3.27
2018-06-24T13:10:19.589Z,4.73
2018-06-24T13:12:48.019Z,4.93
2018-06-24T13:15:16.345Z,2.33
2018-06-24T13:17:44.086Z,4.00
2018-06-24T13:20:12.408Z,2.50
2018-06-24T13:22:40.718Z,2.07
2018-06-24T13:25:09.620Z,3.60
2018-06-24T13:27:37.375Z,2.03
2018-06-24T13:30:06.280Z,1.20
2018-06-24T13:32:34.014Z,4.40
2018-06-24T13:35:02.344Z,4.10
2018-06-24T13:37:30.734Z,4.33
2018-06-24T13:39:59.057Z,2.73
2018-06-24T13:42:27.409Z,1.90
2018-06-24T13:44:55.713Z,2.20
2018-06-24T13:47:24.632Z,2.37
2018-06-24T13:49:52.968Z,3.07
2018-06-24T13:52:20.715Z,5.00
2018-06-24T13:54:49.614Z,4.57
2018-06-24T13:57:17.358Z,2.10
2018-06-24T13:59:46.256Z,1.90
2018-06-24T14:02:14.586Z,2.30
2018-06-24T14:04:42.902Z,3.17
2018-06-24T14:07:10.647Z,2.23
2018-06-24T14:09:39.662Z,2.47
2018-06-24T14:12:07.990Z,2.30
2018-06-24T14:14:36.310Z,3.33
2018-06-24T14:17:04.075Z,2.60
2018-06-24T14:19:32.405Z,2.70
2018-06-24T14:22:06.460Z,3.00
2018-06-24T14:24:35.373Z,6.93
2018-06-24T14:27:03.716Z,14.77
2018-06-24T14:29:32.046Z,2.80
2018-06-24T14:32:00.386Z,2.53
2018-06-24T14:34:28.707Z,3.63
2018-06-24T14:36:57.053Z,2.30
2018-06-24T14:39:25.453Z,3.60
2018-06-24T14:41:53.186Z,2.10
2018-06-24T14:44:22.092Z,4.13
2018-06-24T14:46:50.515Z,7.37
2018-06-24T14:49:18.864Z,2.97
2018-06-24T14:51:47.198Z,5.10
2018-06-24T14:54:15.522Z,1.50
2018-06-24T14:56:43.855Z,2.10
2018-06-24T14:59:12.202Z,2.77
2018-06-24T15:01:40.604Z,3.33
2018-06-24T15:04:08.886Z,3.77
2018-06-24T15:06:37.230Z,2.77
2018-06-24T15:09:05.571Z,1.63
2018-06-24T15:11:33.908Z,2.17
2018-06-24T15:14:02.267Z,6.90
2018-06-24T15:16:30.591Z,2.47
2018-06-24T15:18:58.913Z,6.67
2018-06-24T15:21:27.243Z,2.87
2018-06-24T15:23:55.576Z,2.50
2018-06-24T15:26:23.922Z,2.37
2018-06-24T15:28:52.285Z,2.03
2018-06-24T15:31:20.006Z,2.40
2018-06-24T15:33:48.921Z,1.63
2018-06-24T15:36:17.271Z,2.23
2018-06-24T15:38:45.590Z,3.20
2018-06-24T15:41:13.987Z,2.97
2018-06-24T15:43:41.730Z,2.63
2018-06-24T15:46:10.638Z,2.30
2018-06-24T15:48:38.974Z,7.30
2018-06-24T15:51:07.290Z,3.27
2018-06-24T15:53:35.048Z,3.07
2018-06-24T15:56:04.025Z,3.53
2018-06-24T15:58:31.830Z,2.40
2018-06-24T16:01:00.743Z,3.80
2018-06-24T16:03:29.067Z,4.23
2018-06-24T16:05:57.428Z,2.33
2018-06-24T16:08:25.144Z,3.07
2018-06-24T16:10:54.078Z,2.07
2018-06-24T16:13:22.614Z,4.67
2018-06-24T16:15:50.865Z,2.40
2018-06-24T16:18:18.645Z,4.97
2018-06-24T16:20:47.625Z,4.40
2018-06-24T16:23:15.891Z,3.13
2018-06-24T16:25:44.228Z,2.70
2018-06-24T16:28:12.818Z,2.93
2018-06-24T16:30:41.217Z,5.07
2018-06-24T16:33:09.487Z,3.10
2018-06-24T16:35:37.837Z,2.37
2018-06-24T16:38:06.161Z,3.60
2018-06-24T16:40:33.901Z,3.87
2018-06-24T16:43:02.873Z,3.13
2018-06-24T16:45:31.194Z,3.83
2018-06-24T16:47:59.534Z,5.77
2018-06-24T16:50:28.097Z,4.70
2018-06-24T16:52:56.236Z,3.50
2018-06-24T16:55:24.577Z,2.90
2018-06-24T16:57:52.919Z,3.53
2018-06-24T17:00:21.278Z,4.40
2018-06-24T17:02:49.683Z,4.10
2018-06-24T17:05:17.971Z,2.73
2018-06-24T17:07:46.528Z,3.47
2018-06-24T17:10:14.740Z,5.07
2018-06-24T17:12:43.112Z,6.93
2018-06-24T17:15:11.457Z,4.77
2018-06-24T17:17:39.921Z,4.23
2018-06-24T17:20:08.257Z,3.97
2018-06-24T17:22:36.913Z,4.67
2018-06-24T17:25:05.014Z,3.53
2018-06-24T17:27:33.678Z,2.30
2018-06-24T17:30:01.825Z,8.57
2018-06-24T17:32:30.223Z,37.77
2018-06-24T17:34:58.529Z,5.47
2018-06-24T17:37:26.861Z,2.07
2018-06-24T17:39:56.551Z,4.53
2018-06-24T17:42:23.515Z,6.30
2018-06-24T17:44:51.891Z,2.63
2018-06-24T17:47:20.290Z,4.13
2018-06-24T17:49:48.625Z,3.60
2018-06-24T17:52:17.008Z,3.10
2018-06-24T17:54:45.322Z,2.57
2018-06-24T17:57:13.763Z,2.93
2018-06-24T17:59:42.086Z,6.37
2018-06-24T18:02:10.408Z,2.33
2018-06-24T18:04:38.734Z,3.27
2018-06-24T18:07:07.066Z,2.73
2018-06-24T18:09:35.400Z,3.40
2018-06-24T18:12:03.739Z,4.13
2018-06-24T18:14:32.155Z,3.23
2018-06-24T18:17:00.427Z,2.70
2018-06-24T18:19:28.855Z,2.90
2018-06-24T18:21:57.539Z,2.10
2018-06-24T18:24:25.704Z,7.37
2018-06-24T18:26:54.148Z,2.33
2018-06-24T18:29:22.652Z,2.30
2018-06-24T18:31:50.475Z,4.00
2018-06-24T18:34:19.394Z,7.17
2018-06-24T18:36:47.812Z,5.37
2018-06-24T18:39:16.239Z,2.93
2018-06-24T18:41:44.608Z,6.50
2018-06-24T18:44:12.932Z,7.00
2018-06-24T18:46:41.338Z,8.50
2018-06-24T18:49:09.803Z,5.87
2018-06-24T18:51:38.150Z,5.50
2018-06-24T18:54:06.484Z,16.43
2018-06-24T18:56:35.050Z,9.80
2018-06-24T18:59:03.396Z,4.40
2018-06-24T19:01:31.718Z,5.13
2018-06-24T19:04:00.084Z,4.20
2018-06-24T19:06:28.514Z,3.40
2018-06-24T19:08:56.881Z,5.20
2018-06-24T19:11:25.805Z,4.03
2018-06-24T19:13:54.065Z,2.27
2018-06-24T19:16:22.127Z,5.00
2018-06-24T19:18:50.542Z,4.70
2018-06-24T19:21:18.938Z,4.87
2018-06-24T19:23:47.310Z,5.97
2018-06-24T19:26:15.761Z,4.43
2018-06-24T19:28:44.093Z,6.67
2018-06-24T19:31:12.447Z,3.17
2018-06-24T19:33:40.860Z,3.50
2018-06-24T19:36:09.209Z,3.13
2018-06-24T19:38:39.494Z,4.73
2018-06-24T19:41:07.828Z,63.43
2018-06-24T19:43:36.214Z,5.70
2018-06-24T19:46:03.990Z,5.33
2018-06-24T19:48:32.970Z,4.47
2018-06-24T19:51:01.326Z,5.97
2018-06-24T19:53:29.660Z,3.00
2018-06-24T19:55:57.973Z,3.87
2018-06-24T19:58:26.529Z,3.00
2018-06-24T20:00:54.754Z,6.33
2018-06-24T20:03:23.080Z,4.33
2018-06-24T20:05:51.546Z,7.53
2018-06-24T20:08:19.890Z,7.90
2018-06-24T20:10:48.238Z,3.60
2018-06-24T20:13:16.637Z,4.33
2018-06-24T20:15:45.031Z,3.10
2018-06-24T20:18:12.768Z,5.00
2018-06-24T20:20:41.671Z,4.37
2018-06-24T20:23:10.255Z,3.80
2018-06-24T20:25:38.588Z,2.50
2018-06-24T20:28:06.328Z,2.33
2018-06-24T20:30:34.691Z,4.77
2018-06-24T20:33:04.160Z,2.83
2018-06-24T20:35:32.478Z,6.33
2018-06-24T20:38:00.821Z,5.90
2018-06-24T20:40:29.263Z,4.57
2018-06-24T20:42:57.165Z,6.70
2018-06-24T20:45:25.493Z,39.53
2018-06-24T20:47:54.419Z,8.57
2018-06-24T20:50:23.157Z,6.03
2018-06-24T20:52:51.515Z,6.43
2018-06-24T20:55:19.324Z,9.20
2018-06-24T20:57:48.285Z,8.27
2018-06-24T21:00:16.722Z,6.47
2018-06-24T21:02:45.111Z,6.20
2018-06-24T21:05:12.864Z,6.27
2018-06-24T21:07:41.768Z,8.17
2018-06-24T21:10:10.159Z,5.47
2018-06-24T21:12:38.491Z,8.43
2018-06-24T21:15:06.816Z,6.00
2018-06-24T21:17:35.136Z,6.47
2018-06-24T21:20:02.879Z,6.97
2018-06-24T21:22:31.212Z,6.13
2018-06-24T21:25:00.121Z,7.63
2018-06-24T21:27:28.439Z,6.60
2018-06-24T21:29:56.766Z,5.77
2018-06-24T21:32:25.116Z,7.17
2018-06-24T21:34:52.853Z,6.47
2018-06-24T21:37:21.780Z,7.23
2018-06-24T21:39:50.089Z,4.73
2018-06-24T21:42:18.414Z,6.77
2018-06-24T21:44:46.749Z,5.70
2018-06-24T21:47:14.506Z,4.43
2018-06-24T21:49:43.406Z,5.23
2018-06-24T21:52:11.782Z,6.13
2018-06-24T21:54:39.646Z,8.83
2018-06-24T21:57:08.554Z,7.37
2018-06-24T21:59:36.943Z,4.80
2018-06-24T22:02:05.278Z,7.73
2018-06-24T22:04:33.669Z,5.97
2018-06-24T22:07:01.413Z,7.07
2018-06-24T22:09:30.313Z,8.10
2018-06-24T22:11:58.630Z,6.90
2018-06-24T22:14:27.074Z,6.87
2018-06-24T22:16:55.402Z,6.10
2018-06-24T22:19:23.720Z,8.23
2018-06-24T22:21:51.555Z,6.93
2018-06-24T22:24:19.847Z,9.80
2018-06-24T22:26:48.749Z,5.47
2018-06-24T22:29:17.076Z,7.03
2018-06-24T22:31:44.822Z,6.57
2018-06-24T22:34:13.967Z,6.83
2018-06-24T22:36:41.486Z,9.63
2018-06-24T22:39:09.823Z,6.43
2018-06-24T22:41:38.733Z,5.83
2018-06-24T22:44:07.070Z,6.77
2018-06-24T22:46:35.621Z,4.60
2018-06-24T22:49:03.729Z,7.77
2018-06-24T22:51:32.057Z,9.67
2018-06-24T22:53:59.846Z,5.17
2018-06-24T22:56:28.744Z,5.40
2018-06-24T22:58:57.072Z,5.47
2018-06-24T23:01:24.818Z,4.43
2018-06-24T23:03:53.721Z,5.93
2018-06-24T23:06:21.477Z,6.03
2018-06-24T23:08:50.432Z,8.03
2018-06-24T23:11:18.161Z,6.60
2018-06-24T23:13:47.056Z,8.20
2018-06-24T23:16:14.806Z,4.40
2018-06-24T23:18:43.729Z,7.40
2018-06-24T23:21:12.051Z,7.57
2018-06-24T23:23:40.365Z,7.93
2018-06-24T23:26:08.101Z,6.73
2018-06-24T23:28:36.476Z,7.73
2018-06-24T23:31:05.598Z,7.30
2018-06-24T23:33:33.694Z,6.10
2018-06-24T23:36:01.435Z,9.30
2018-06-24T23:38:30.330Z,6.20
2018-06-24T23:40:58.679Z,6.10
2018-06-24T23:43:27.024Z,4.63
2018-06-24T23:45:55.340Z,7.67
2018-06-24T23:48:23.661Z,6.77
2018-06-24T23:50:51.400Z,5.73
2018-06-24T23:53:19.719Z,5.20
2018-06-24T23:55:48.102Z,6.93
2018-06-24T23:58:17.017Z,7.40
